Pocono Manor, Pennsylvania
Current Conditions -  °F | °C
As of 5:53 PM on Monday 24 Nov 2014 (Local Time) from KMPO Reporting Station
Clear Clear  
Wind Chill: 57°   Ceiling: Unl
Heat Index: 57°   Visibility: 10mi
Dew Point: 51°   Wind: 18mph
Humidity: 81%   Direction: 200°SSW
Pressure: 29.62"   Gusts: 26mph
Location:  41.1°N, 75.36°W
Report Text: KMPO 242253Z AUTO 20016G23KT 10SM CLR 14/11 A2962 RMK AO2 PK WND 22026/2240 SLP029 T01390106
Loading
Personal Weather Stations






























Interactive Weather Map New forecast layout! Learn more

10-Day Weather Forecast

Advertisements
Track Severe Weather on mobile